Terminal Aerodrome Forecast
Issued by NWS Bismarck, ND

Home | Current Version | Previous Version | Graphics & Text | Print | Product List | Glossary On
Versions: 1 2 3 4 5 6 7 8 9 10 11 12 13 14 15 16 17 18 19 20 21 22
658
FTUS43 KBIS 151629 AAA
TAFBIS
TAF AMD
KBIS 151629Z 1516/1612 13006KT P6SM VCSH OVC110
      TEMPO 1518/1521 5SM -SHRA BR OVC015
     FM152100 14005KT P6SM -SHRA VCTS OVC010CB
     FM160000 09005KT P6SM VCSH BKN025
     FM160400 03004KT P6SM BKN025
     FM160600 VRB03KT P6SM SCT030=

USA.gov is the U.S. government's official web portal to all federal, state and local government web resources and services.